sensor_id;sensor_type;location;lat;lon;timestamp;pressure;altitude;pressure_sealevel;temperature;humidity
57572;BME280;44459;43.522;24.470;2023-02-21T00:01:24;100416.16;;;5.11;76.77
57572;BME280;44459;43.522;24.470;2023-02-21T00:04:08;100412.69;;;5.10;76.52
57572;BME280;44459;43.522;24.470;2023-02-21T00:06:52;100406.56;;;5.10;76.33
57572;BME280;44459;43.522;24.470;2023-02-21T00:09:38;100410.34;;;5.19;75.71
57572;BME280;44459;43.522;24.470;2023-02-21T00:12:22;100396.34;;;5.17;75.56
57572;BME280;44459;43.522;24.470;2023-02-21T00:15:06;100400.63;;;5.15;75.65
57572;BME280;44459;43.522;24.470;2023-02-21T00:17:50;100404.38;;;5.25;75.44
57572;BME280;44459;43.522;24.470;2023-02-21T00:20:34;100389.66;;;5.28;74.90
57572;BME280;44459;43.522;24.470;2023-02-21T00:23:18;100391.59;;;5.34;75.00
57572;BME280;44459;43.522;24.470;2023-02-21T00:26:02;100387.19;;;5.33;74.98
57572;BME280;44459;43.522;24.470;2023-02-21T00:28:46;100383.84;;;5.38;74.76
57572;BME280;44459;43.522;24.470;2023-02-21T00:31:30;100378.25;;;5.54;73.58
57572;BME280;44459;43.522;24.470;2023-02-21T00:34:14;100372.44;;;5.66;73.82
57572;BME280;44459;43.522;24.470;2023-02-21T00:36:58;100369.06;;;5.70;73.68
57572;BME280;44459;43.522;24.470;2023-02-21T00:39:42;100360.41;;;5.73;73.38
57572;BME280;44459;43.522;24.470;2023-02-21T00:42:26;100358.00;;;5.80;72.96
57572;BME280;44459;43.522;24.470;2023-02-21T00:45:10;100346.69;;;5.81;72.72
57572;BME280;44459;43.522;24.470;2023-02-21T00:47:54;100350.22;;;5.83;72.70
57572;BME280;44459;43.522;24.470;2023-02-21T00:50:37;100353.84;;;5.87;72.54
57572;BME280;44459;43.522;24.470;2023-02-21T00:53:24;100342.41;;;5.85;72.74
57572;BME280;44459;43.522;24.470;2023-02-21T00:56:08;100340.88;;;5.91;72.50
57572;BME280;44459;43.522;24.470;2023-02-21T00:58:52;100338.47;;;6.00;72.24
57572;BME280;44459;43.522;24.470;2023-02-21T01:01:36;100344.88;;;6.12;71.83
57572;BME280;44459;43.522;24.470;2023-02-21T01:04:20;100336.38;;;6.20;71.70
57572;BME280;44459;43.522;24.470;2023-02-21T01:07:04;100335.88;;;6.35;71.20
57572;BME280;44459;43.522;24.470;2023-02-21T01:09:48;100333.59;;;6.48;70.46
57572;BME280;44459;43.522;24.470;2023-02-21T01:12:32;100330.28;;;6.57;70.04
57572;BME280;44459;43.522;24.470;2023-02-21T01:15:16;100331.38;;;6.67;69.71
57572;BME280;44459;43.522;24.470;2023-02-21T01:18:00;100327.19;;;6.73;69.74
57572;BME280;44459;43.522;24.470;2023-02-21T01:20:45;100325.72;;;6.86;69.06
57572;BME280;44459;43.522;24.470;2023-02-21T01:23:30;100318.13;;;6.99;68.70
57572;BME280;44459;43.522;24.470;2023-02-21T01:26:14;100311.31;;;7.07;68.03
57572;BME280;44459;43.522;24.470;2023-02-21T01:28:58;100321.94;;;7.14;67.97
57572;BME280;44459;43.522;24.470;2023-02-21T01:31:42;100315.84;;;7.15;67.91
57572;BME280;44459;43.522;24.470;2023-02-21T01:34:26;100314.06;;;7.15;67.88
57572;BME280;44459;43.522;24.470;2023-02-21T01:37:10;100319.47;;;7.21;67.71
57572;BME280;44459;43.522;24.470;2023-02-21T01:39:53;100318.69;;;7.25;67.89
57572;BME280;44459;43.522;24.470;2023-02-21T01:42:37;100308.09;;;7.21;67.82
57572;BME280;44459;43.522;24.470;2023-02-21T01:48:13;100308.09;;;7.21;67.66
57572;BME280;44459;43.522;24.470;2023-02-21T01:50:58;100312.28;;;7.13;68.08
57572;BME280;44459;43.522;24.470;2023-02-21T01:53:44;100309.72;;;7.14;68.20
57572;BME280;44459;43.522;24.470;2023-02-21T01:56:29;100298.09;;;7.03;68.30
57572;BME280;44459;43.522;24.470;2023-02-21T01:59:13;100303.41;;;7.06;68.07
57572;BME280;44459;43.522;24.470;2023-02-21T02:04:57;100290.09;;;6.98;68.76
57572;BME280;44459;43.522;24.470;2023-02-21T02:07:42;100291.78;;;6.93;68.92
57572;BME280;44459;43.522;24.470;2023-02-21T02:10:26;100288.16;;;6.88;69.03
57572;BME280;44459;43.522;24.470;2023-02-21T02:19:25;100301.38;;;6.94;68.64
57572;BME280;44459;43.522;24.470;2023-02-21T02:24:36;100299.63;;;6.93;68.40
57572;BME280;44459;43.522;24.470;2023-02-21T02:27:11;100285.56;;;6.90;68.47
57572;BME280;44459;43.522;24.470;2023-02-21T02:32:51;100282.16;;;6.94;68.54
57572;BME280;44459;43.522;24.470;2023-02-21T02:38:08;100281.34;;;6.96;68.08
57572;BME280;44459;43.522;24.470;2023-02-21T02:40:48;100282.41;;;7.06;67.65
57572;BME280;44459;43.522;24.470;2023-02-21T02:43:24;100281.50;;;7.05;67.51
57572;BME280;44459;43.522;24.470;2023-02-21T02:45:55;100286.09;;;7.14;67.21
57572;BME280;44459;43.522;24.470;2023-02-21T02:48:39;100285.31;;;7.20;67.12
57572;BME280;44459;43.522;24.470;2023-02-21T02:51:10;100277.44;;;7.20;67.04
57572;BME280;44459;43.522;24.470;2023-02-21T02:53:36;100274.72;;;7.15;66.83
57572;BME280;44459;43.522;24.470;2023-02-21T02:56:05;100266.03;;;7.18;66.69
57572;BME280;44459;43.522;24.470;2023-02-21T02:58:47;100277.41;;;7.18;66.80
57572;BME280;44459;43.522;24.470;2023-02-21T03:09:42;100263.06;;;7.01;67.17
57572;BME280;44459;43.522;24.470;2023-02-21T03:12:21;100276.16;;;6.99;67.32
57572;BME280;44459;43.522;24.470;2023-02-21T03:17:23;100279.94;;;7.14;66.87
57572;BME280;44459;43.522;24.470;2023-02-21T03:19:51;100280.91;;;7.19;66.91
57572;BME280;44459;43.522;24.470;2023-02-21T03:22:21;100270.41;;;7.19;66.43
57572;BME280;44459;43.522;24.470;2023-02-21T03:24:49;100274.03;;;7.24;66.27
57572;BME280;44459;43.522;24.470;2023-02-21T03:27:16;100278.53;;;7.31;66.08
57572;BME280;44459;43.522;24.470;2023-02-21T03:29:43;100269.81;;;7.32;65.60
57572;BME280;44459;43.522;24.470;2023-02-21T03:32:26;100267.19;;;7.33;65.60
57572;BME280;44459;43.522;24.470;2023-02-21T03:34:52;100270.72;;;7.34;65.96
57572;BME280;44459;43.522;24.470;2023-02-21T03:37:27;100269.81;;;7.32;65.99
57572;BME280;44459;43.522;24.470;2023-02-21T03:39:53;100262.78;;;7.31;65.67
57572;BME280;44459;43.522;24.470;2023-02-21T03:42:19;100263.63;;;7.30;65.73
57572;BME280;44459;43.522;24.470;2023-02-21T03:44:44;100264.47;;;7.27;66.04
57572;BME280;44459;43.522;24.470;2023-02-21T03:47:10;100274.13;;;7.30;65.95
57572;BME280;44459;43.522;24.470;2023-02-21T03:49:35;100270.59;;;7.28;66.28
57572;BME280;44459;43.522;24.470;2023-02-21T03:52:00;100266.31;;;7.31;65.77
57572;BME280;44459;43.522;24.470;2023-02-21T03:54:26;100262.91;;;7.37;65.22
57572;BME280;44459;43.522;24.470;2023-02-21T03:56:51;100269.19;;;7.46;65.18
57572;BME280;44459;43.522;24.470;2023-02-21T03:59:17;100259.53;;;7.44;64.97
57572;BME280;44459;43.522;24.470;2023-02-21T04:01:42;100264.78;;;7.44;65.09
57572;BME280;44459;43.522;24.470;2023-02-21T04:04:08;100252.50;;;7.43;65.22
57572;BME280;44459;43.522;24.470;2023-02-21T04:06:33;100248.91;;;7.38;65.67
57572;BME280;44459;43.522;24.470;2023-02-21T04:08:59;100253.19;;;7.33;65.73
57572;BME280;44459;43.522;24.470;2023-02-21T04:11:24;100244.38;;;7.29;65.97
57572;BME280;44459;43.522;24.470;2023-02-21T04:13:49;100249.75;;;7.35;66.30
57572;BME280;44459;43.522;24.470;2023-02-21T04:16:15;100251.38;;;7.30;66.24
57572;BME280;44459;43.522;24.470;2023-02-21T04:18:40;100254.75;;;7.23;66.45
57572;BME280;44459;43.522;24.470;2023-02-21T04:21:05;100252.84;;;7.15;66.98
57572;BME280;44459;43.522;24.470;2023-02-21T04:23:31;100252.81;;;7.13;66.61
57572;BME280;44459;43.522;24.470;2023-02-21T04:25:56;100252.66;;;7.05;67.15
57572;BME280;44459;43.522;24.470;2023-02-21T04:28:22;100255.09;;;6.96;67.43
57572;BME280;44459;43.522;24.470;2023-02-21T04:30:48;100254.09;;;6.90;67.60
57572;BME280;44459;43.522;24.470;2023-02-21T04:33:13;100246.06;;;6.84;67.81
57572;BME280;44459;43.522;24.470;2023-02-21T04:35:38;100239.91;;;6.82;67.85
57572;BME280;44459;43.522;24.470;2023-02-21T04:38:04;100241.69;;;6.83;67.90
57572;BME280;44459;43.522;24.470;2023-02-21T04:40:29;100243.38;;;6.79;68.14
57572;BME280;44459;43.522;24.470;2023-02-21T04:42:55;100237.03;;;6.70;68.53
57572;BME280;44459;43.522;24.470;2023-02-21T04:45:20;100242.06;;;6.61;68.88
57572;BME280;44459;43.522;24.470;2023-02-21T04:47:46;100231.41;;;6.53;69.29
57572;BME280;44459;43.522;24.470;2023-02-21T04:50:11;100241.88;;;6.53;69.18
57572;BME280;44459;43.522;24.470;2023-02-21T04:52:37;100234.91;;;6.52;69.30
57572;BME280;44459;43.522;24.470;2023-02-21T04:55:05;100225.13;;;6.46;69.34
57572;BME280;44459;43.522;24.470;2023-02-21T04:57:31;100227.53;;;6.36;69.89
57572;BME280;44459;43.522;24.470;2023-02-21T04:59:58;100221.25;;;6.29;70.66
57572;BME280;44459;43.522;24.470;2023-02-21T05:02:24;100225.59;;;6.29;70.75
57572;BME280;44459;43.522;24.470;2023-02-21T05:04:49;100216.00;;;6.28;70.50
57572;BME280;44459;43.522;24.470;2023-02-21T05:07:15;100212.56;;;6.32;70.65
57572;BME280;44459;43.522;24.470;2023-02-21T05:09:40;100200.34;;;6.31;70.74
57572;BME280;44459;43.522;24.470;2023-02-21T05:12:06;100203.72;;;6.27;70.78
57572;BME280;44459;43.522;24.470;2023-02-21T05:14:36;100201.22;;;6.31;70.86
57572;BME280;44459;43.522;24.470;2023-02-21T05:17:02;100197.66;;;6.28;71.07
57572;BME280;44459;43.522;24.470;2023-02-21T05:19:27;100196.75;;;6.27;71.28
57572;BME280;44459;43.522;24.470;2023-02-21T05:21:57;100203.03;;;6.35;70.76
57572;BME280;44459;43.522;24.470;2023-02-21T05:24:24;100203.22;;;6.43;70.53
57572;BME280;44459;43.522;24.470;2023-02-21T05:26:50;100195.56;;;6.52;69.89
57572;BME280;44459;43.522;24.470;2023-02-21T05:29:16;100189.50;;;6.56;70.16
57572;BME280;44459;43.522;24.470;2023-02-21T05:31:43;100196.66;;;6.63;69.85
57572;BME280;44459;43.522;24.470;2023-02-21T05:34:09;100201.16;;;6.69;70.11
57572;BME280;44459;43.522;24.470;2023-02-21T05:36:34;100195.19;;;6.76;69.79
57572;BME280;44459;43.522;24.470;2023-02-21T05:39:00;100204.28;;;6.94;69.28
57572;BME280;44459;43.522;24.470;2023-02-21T05:41:25;100205.59;;;7.15;68.55
57572;BME280;44459;43.522;24.470;2023-02-21T05:43:51;100213.00;;;7.37;67.55
57572;BME280;44459;43.522;24.470;2023-02-21T05:46:26;100220.31;;;7.53;67.21
57572;BME280;44459;43.522;24.470;2023-02-21T05:48:53;100215.22;;;7.62;67.12
57572;BME280;44459;43.522;24.470;2023-02-21T05:51:19;100210.16;;;7.74;66.92
57572;BME280;44459;43.522;24.470;2023-02-21T05:53:45;100212.16;;;7.87;66.55
57572;BME280;44459;43.522;24.470;2023-02-21T05:56:11;100216.69;;;7.97;66.35
57572;BME280;44459;43.522;24.470;2023-02-21T05:58:37;100204.50;;;8.02;66.15
57572;BME280;44459;43.522;24.470;2023-02-21T06:01:03;100212.56;;;8.13;66.01
57572;BME280;44459;43.522;24.470;2023-02-21T06:03:29;100203.97;;;8.26;66.03
57572;BME280;44459;43.522;24.470;2023-02-21T06:05:54;100217.31;;;8.35;65.61
57572;BME280;44459;43.522;24.470;2023-02-21T06:08:20;100213.19;;;8.52;65.65
57572;BME280;44459;43.522;24.470;2023-02-21T06:10:45;100212.50;;;8.67;65.43
57572;BME280;44459;43.522;24.470;2023-02-21T06:13:11;100217.06;;;8.82;65.26
57572;BME280;44459;43.522;24.470;2023-02-21T06:15:36;100210.19;;;8.93;65.58
57572;BME280;44459;43.522;24.470;2023-02-21T06:18:01;100208.53;;;9.01;64.85
57572;BME280;44459;43.522;24.470;2023-02-21T06:20:27;100206.91;;;9.14;64.46
57572;BME280;44459;43.522;24.470;2023-02-21T06:22:52;100200.88;;;9.19;64.08
57572;BME280;44459;43.522;24.470;2023-02-21T06:25:18;100202.75;;;9.34;63.20
57572;BME280;44459;43.522;24.470;2023-02-21T06:27:43;100206.44;;;9.49;63.41
57572;BME280;44459;43.522;24.470;2023-02-21T06:30:09;100196.00;;;9.60;62.83
57572;BME280;44459;43.522;24.470;2023-02-21T06:32:35;100192.56;;;9.69;62.33
57572;BME280;44459;43.522;24.470;2023-02-21T06:35:01;100199.75;;;9.89;61.73
57572;BME280;44459;43.522;24.470;2023-02-21T06:37:27;100200.72;;;10.00;61.38
57572;BME280;44459;43.522;24.470;2023-02-21T06:39:53;100210.50;;;10.13;61.15
57572;BME280;44459;43.522;24.470;2023-02-21T06:42:19;100200.97;;;10.26;60.21
57572;BME280;44459;43.522;24.470;2023-02-21T06:44:48;100200.16;;;10.36;59.60
57572;BME280;44459;43.522;24.470;2023-02-21T06:47:14;100200.22;;;10.50;59.80
57572;BME280;44459;43.522;24.470;2023-02-21T06:49:40;100209.06;;;10.59;59.15
57572;BME280;44459;43.522;24.470;2023-02-21T06:52:06;100198.59;;;10.72;58.34
57572;BME280;44459;43.522;24.470;2023-02-21T06:54:32;100188.09;;;10.90;58.25
57572;BME280;44459;43.522;24.470;2023-02-21T06:56:58;100187.28;;;11.03;57.58
57572;BME280;44459;43.522;24.470;2023-02-21T06:59:26;100200.53;;;11.20;57.31
57572;BME280;44459;43.522;24.470;2023-02-21T07:01:52;100197.03;;;11.33;57.03
57572;BME280;44459;43.522;24.470;2023-02-21T07:04:18;100191.78;;;11.52;56.18
57572;BME280;44459;43.522;24.470;2023-02-21T07:06:43;100196.22;;;11.70;55.02
57572;BME280;44459;43.522;24.470;2023-02-21T07:09:08;100189.22;;;11.93;54.07
57572;BME280;44459;43.522;24.470;2023-02-21T07:11:34;100193.63;;;12.22;53.71
57572;BME280;44459;43.522;24.470;2023-02-21T07:14:00;100182.09;;;12.44;52.68
57572;BME280;44459;43.522;24.470;2023-02-21T07:16:25;100192.63;;;12.67;51.50
57572;BME280;44459;43.522;24.470;2023-02-21T07:18:51;100188.16;;;12.87;51.29
57572;BME280;44459;43.522;24.470;2023-02-21T07:21:17;100188.03;;;13.13;50.30
57572;BME280;44459;43.522;24.470;2023-02-21T07:23:45;100186.94;;;13.53;48.86
57572;BME280;44459;43.522;24.470;2023-02-21T07:26:11;100180.25;;;14.15;47.36
57572;BME280;44459;43.522;24.470;2023-02-21T07:28:37;100180.09;;;14.33;46.01
57572;BME280;44459;43.522;24.470;2023-02-21T13:29:26;99883.81;;;19.99;29.86
57572;BME280;44459;43.522;24.470;2023-02-21T13:32:01;99896.91;;;20.08;29.50
57572;BME280;44459;43.522;24.470;2023-02-21T13:34:30;99877.22;;;20.09;29.82
57572;BME280;44459;43.522;24.470;2023-02-21T13:37:05;99881.50;;;20.14;29.99
57572;BME280;44459;43.522;24.470;2023-02-21T13:39:32;99886.19;;;20.08;30.23
57572;BME280;44459;43.522;24.470;2023-02-21T13:42:08;99883.25;;;20.15;29.37
57572;BME280;44459;43.522;24.470;2023-02-21T13:57:43;99883.78;;;20.01;29.87
57572;BME280;44459;43.522;24.470;2023-02-21T14:10:42;99882.19;;;19.72;31.28
57572;BME280;44459;43.522;24.470;2023-02-21T14:13:34;99880.34;;;19.74;31.00
57572;BME280;44459;43.522;24.470;2023-02-21T14:21:14;99871.94;;;19.83;31.12
57572;BME280;44459;43.522;24.470;2023-02-21T14:39:52;99872.47;;;19.93;30.29
57572;BME280;44459;43.522;24.470;2023-02-21T15:06:43;99865.03;;;21.92;27.48
57572;BME280;44459;43.522;24.470;2023-02-21T15:09:18;99872.72;;;20.98;28.74
57572;BME280;44459;43.522;24.470;2023-02-21T15:11:45;99878.22;;;20.52;29.36
57572;BME280;44459;43.522;24.470;2023-02-21T15:14:17;99876.53;;;20.49;29.95
57572;BME280;44459;43.522;24.470;2023-02-21T15:16:50;99878.41;;;20.69;29.73
57572;BME280;44459;43.522;24.470;2023-02-21T15:22:14;99872.34;;;19.48;31.50
57572;BME280;44459;43.522;24.470;2023-02-21T15:24:40;99880.53;;;18.92;32.16
57572;BME280;44459;43.522;24.470;2023-02-21T15:27:11;99884.50;;;18.53;33.04
57572;BME280;44459;43.522;24.470;2023-02-21T15:29:38;99885.47;;;18.21;33.62
57572;BME280;44459;43.522;24.470;2023-02-21T15:32:04;99886.16;;;17.98;33.79
57572;BME280;44459;43.522;24.470;2023-02-21T15:34:41;99875.63;;;17.94;33.96
57572;BME280;44459;43.522;24.470;2023-02-21T15:37:22;99877.22;;;17.99;34.11
57572;BME280;44459;43.522;24.470;2023-02-21T15:39:55;99885.38;;;17.64;34.76
57572;BME280;44459;43.522;24.470;2023-02-21T15:42:22;99880.66;;;17.41;35.35
57572;BME280;44459;43.522;24.470;2023-02-21T15:44:54;99884.53;;;17.30;35.57
57572;BME280;44459;43.522;24.470;2023-02-21T15:47:22;99881.47;;;17.11;36.15
57572;BME280;44459;43.522;24.470;2023-02-21T15:50:12;99888.03;;;16.98;36.14
57572;BME280;44459;43.522;24.470;2023-02-21T15:52:46;99884.91;;;16.81;36.39
57572;BME280;44459;43.522;24.470;2023-02-21T16:02:48;99873.91;;;16.19;37.31
57572;BME280;44459;43.522;24.470;2023-02-21T16:05:25;99874.22;;;16.05;37.54
57572;BME280;44459;43.522;24.470;2023-02-21T16:07:51;99881.63;;;15.91;37.27
57572;BME280;44459;43.522;24.470;2023-02-21T16:10:22;99881.00;;;15.79;37.79
57572;BME280;44459;43.522;24.470;2023-02-21T16:12:57;99887.25;;;15.76;38.13
57572;BME280;44459;43.522;24.470;2023-02-21T16:15:30;99889.31;;;15.62;38.27
57572;BME280;44459;43.522;24.470;2023-02-21T16:18:01;99895.81;;;15.46;38.94
57572;BME280;44459;43.522;24.470;2023-02-21T16:20:39;99898.75;;;15.32;39.48
57572;BME280;44459;43.522;24.470;2023-02-21T16:25:54;99903.63;;;15.07;40.11
57572;BME280;44459;43.522;24.470;2023-02-21T16:28:20;99916.09;;;15.04;40.30
57572;BME280;44459;43.522;24.470;2023-02-21T16:30:46;99904.63;;;15.00;40.44
57572;BME280;44459;43.522;24.470;2023-02-21T16:33:12;99910.88;;;14.96;40.54
57572;BME280;44459;43.522;24.470;2023-02-21T16:35:41;99911.81;;;14.95;40.58
57572;BME280;44459;43.522;24.470;2023-02-21T16:38:12;99918.91;;;14.93;40.72
57572;BME280;44459;43.522;24.470;2023-02-21T16:40:38;99917.25;;;14.86;40.76
57572;BME280;44459;43.522;24.470;2023-02-21T16:43:03;99922.59;;;14.86;40.98
57572;BME280;44459;43.522;24.470;2023-02-21T16:45:30;99919.19;;;14.78;41.06
57572;BME280;44459;43.522;24.470;2023-02-21T16:48:00;99924.56;;;14.72;41.54
57572;BME280;44459;43.522;24.470;2023-02-21T16:50:33;99919.47;;;14.60;42.12
57572;BME280;44459;43.522;24.470;2023-02-21T16:53:00;99924.00;;;14.52;42.21
57572;BME280;44459;43.522;24.470;2023-02-21T16:55:26;99936.59;;;14.39;42.59
57572;BME280;44459;43.522;24.470;2023-02-21T16:57:55;99927.88;;;14.27;42.90
57572;BME280;44459;43.522;24.470;2023-02-21T17:00:22;99927.97;;;14.21;43.03
57572;BME280;44459;43.522;24.470;2023-02-21T17:02:49;99936.81;;;14.20;43.44
57572;BME280;44459;43.522;24.470;2023-02-21T17:05:15;99925.41;;;14.15;43.40
57572;BME280;44459;43.522;24.470;2023-02-21T17:07:41;99933.41;;;14.11;43.53
57572;BME280;44459;43.522;24.470;2023-02-21T17:10:08;99931.69;;;14.07;43.65
57572;BME280;44459;43.522;24.470;2023-02-21T17:12:34;99924.56;;;14.09;43.54
57572;BME280;44459;43.522;24.470;2023-02-21T17:14:59;99930.75;;;14.10;43.59
57572;BME280;44459;43.522;24.470;2023-02-21T17:17:24;99927.22;;;14.11;43.86
57572;BME280;44459;43.522;24.470;2023-02-21T17:19:50;99926.50;;;13.98;44.27
57572;BME280;44459;43.522;24.470;2023-02-21T17:22:15;99930.94;;;13.96;44.76
57572;BME280;44459;43.522;24.470;2023-02-21T17:24:41;99924.84;;;13.91;44.63
57572;BME280;44459;43.522;24.470;2023-02-21T17:27:07;99923.91;;;13.92;44.46
57572;BME280;44459;43.522;24.470;2023-02-21T17:29:32;99913.25;;;13.98;44.29
57572;BME280;44459;43.522;24.470;2023-02-21T17:31:58;99918.47;;;14.03;44.48
57572;BME280;44459;43.522;24.470;2023-02-21T17:34:23;99915.75;;;14.07;44.02
57572;BME280;44459;43.522;24.470;2023-02-21T17:36:50;99929.00;;;14.10;44.06
57572;BME280;44459;43.522;24.470;2023-02-21T17:39:18;99922.75;;;14.13;44.06
57572;BME280;44459;43.522;24.470;2023-02-21T17:41:48;99919.25;;;14.13;43.99
57572;BME280;44459;43.522;24.470;2023-02-21T17:44:14;99917.47;;;14.11;44.19
57572;BME280;44459;43.522;24.470;2023-02-21T17:46:45;99905.06;;;14.13;44.24
57572;BME280;44459;43.522;24.470;2023-02-21T17:49:12;99900.63;;;14.16;44.27
57572;BME280;44459;43.522;24.470;2023-02-21T17:51:38;99897.03;;;14.17;44.12
57572;BME280;44459;43.522;24.470;2023-02-21T17:54:03;99886.38;;;14.20;43.69
57572;BME280;44459;43.522;24.470;2023-02-21T17:56:29;99893.41;;;14.24;43.52
57572;BME280;44459;43.522;24.470;2023-02-21T17:58:54;99884.53;;;14.26;43.36
57572;BME280;44459;43.522;24.470;2023-02-21T18:01:21;99886.19;;;14.35;43.03
57572;BME280;44459;43.522;24.470;2023-02-21T18:03:47;99894.09;;;14.39;43.17
57572;BME280;44459;43.522;24.470;2023-02-21T18:06:14;99895.00;;;14.38;43.14
57572;BME280;44459;43.522;24.470;2023-02-21T18:08:39;99890.63;;;14.34;42.88
57572;BME280;44459;43.522;24.470;2023-02-21T18:11:08;99911.78;;;14.42;42.81
57572;BME280;44459;43.522;24.470;2023-02-21T18:13:34;99924.16;;;14.43;43.00
57572;BME280;44459;43.522;24.470;2023-02-21T18:16:00;99924.09;;;14.46;42.83
57572;BME280;44459;43.522;24.470;2023-02-21T18:18:26;99925.94;;;14.42;43.24
57572;BME280;44459;43.522;24.470;2023-02-21T18:20:51;99926.88;;;14.40;42.89
57572;BME280;44459;43.522;24.470;2023-02-21T18:23:16;99926.88;;;14.40;42.90
57572;BME280;44459;43.522;24.470;2023-02-21T18:25:42;99933.94;;;14.39;42.60
57572;BME280;44459;43.522;24.470;2023-02-21T18:28:09;99925.00;;;14.45;42.55
57572;BME280;44459;43.522;24.470;2023-02-21T18:30:35;99924.16;;;14.43;42.58
57572;BME280;44459;43.522;24.470;2023-02-21T18:33:00;99926.88;;;14.40;42.68
57572;BME280;44459;43.522;24.470;2023-02-21T18:35:26;99934.81;;;14.40;42.79
57572;BME280;44459;43.522;24.470;2023-02-21T18:37:51;99920.66;;;14.39;42.78
57572;BME280;44459;43.522;24.470;2023-02-21T18:40:17;99942.78;;;14.40;42.32
57572;BME280;44459;43.522;24.470;2023-02-21T18:42:43;99947.13;;;14.44;42.15
57572;BME280;44459;43.522;24.470;2023-02-21T18:45:10;99948.91;;;14.45;42.57
57572;BME280;44459;43.522;24.470;2023-02-21T18:47:38;99947.97;;;14.49;42.31
57572;BME280;44459;43.522;24.470;2023-02-21T18:50:04;99961.31;;;14.44;42.39
57572;BME280;44459;43.522;24.470;2023-02-21T18:52:30;99956.03;;;14.43;42.42
57572;BME280;44459;43.522;24.470;2023-02-21T18:54:55;99948.13;;;14.38;42.97
57572;BME280;44459;43.522;24.470;2023-02-21T18:57:27;99955.25;;;14.35;42.83
57572;BME280;44459;43.522;24.470;2023-02-21T18:59:54;99949.13;;;14.27;42.89
57572;BME280;44459;43.522;24.470;2023-02-21T19:02:19;99963.34;;;14.21;43.39
57572;BME280;44459;43.522;24.470;2023-02-21T19:04:45;99962.66;;;14.08;43.48
57572;BME280;44459;43.522;24.470;2023-02-21T19:07:12;99973.41;;;13.96;44.17
57572;BME280;44459;43.522;24.470;2023-02-21T19:09:38;99970.88;;;13.86;44.67
57572;BME280;44459;43.522;24.470;2023-02-21T19:12:04;99969.25;;;13.73;45.05
57572;BME280;44459;43.522;24.470;2023-02-21T19:14:33;99970.25;;;13.61;45.25
57572;BME280;44459;43.522;24.470;2023-02-21T19:16:59;99979.19;;;13.51;45.97
57572;BME280;44459;43.522;24.470;2023-02-21T19:19:25;99978.41;;;13.43;45.89
57572;BME280;44459;43.522;24.470;2023-02-21T19:21:50;99991.69;;;13.43;45.95
57572;BME280;44459;43.522;24.470;2023-02-21T19:24:16;99981.06;;;13.41;45.89
57572;BME280;44459;43.522;24.470;2023-02-21T19:26:41;99981.06;;;13.40;45.53
57572;BME280;44459;43.522;24.470;2023-02-21T19:29:07;99978.41;;;13.40;45.48
57572;BME280;44459;43.522;24.470;2023-02-21T19:31:34;99986.38;;;13.43;45.49
57572;BME280;44459;43.522;24.470;2023-02-21T19:33:59;99991.69;;;13.40;45.67
57572;BME280;44459;43.522;24.470;2023-02-21T19:36:25;99991.69;;;13.43;45.60
57572;BME280;44459;43.522;24.470;2023-02-21T19:38:50;100004.00;;;13.47;45.74
57572;BME280;44459;43.522;24.470;2023-02-21T19:41:16;100000.47;;;13.43;45.61
57572;BME280;44459;43.522;24.470;2023-02-21T19:43:44;99989.91;;;13.42;45.61
57572;BME280;44459;43.522;24.470;2023-02-21T19:46:21;100001.44;;;13.39;45.65
57572;BME280;44459;43.522;24.470;2023-02-21T19:48:47;100004.97;;;13.37;45.56
57572;BME280;44459;43.522;24.470;2023-02-21T19:51:14;100018.19;;;13.40;45.53
57572;BME280;44459;43.522;24.470;2023-02-21T19:53:40;100022.66;;;13.39;45.45
57572;BME280;44459;43.522;24.470;2023-02-21T19:56:06;100024.38;;;13.40;45.69
57572;BME280;44459;43.522;24.470;2023-02-21T19:58:32;100027.06;;;13.39;45.69
57572;BME280;44459;43.522;24.470;2023-02-21T20:00:58;100029.72;;;13.37;45.50
57572;BME280;44459;43.522;24.470;2023-02-21T20:03:23;100032.38;;;13.39;45.24
57572;BME280;44459;43.522;24.470;2023-02-21T20:05:48;100035.91;;;13.38;45.28
57572;BME280;44459;43.522;24.470;2023-02-21T20:08:14;100043.03;;;13.33;45.38
57572;BME280;44459;43.522;24.470;2023-02-21T20:10:39;100052.75;;;13.32;45.45
57572;BME280;44459;43.522;24.470;2023-02-21T20:13:05;100058.97;;;13.28;45.85
57572;BME280;44459;43.522;24.470;2023-02-21T20:15:33;100051.91;;;13.26;45.58
57572;BME280;44459;43.522;24.470;2023-02-21T20:17:58;100056.34;;;13.25;45.97
57572;BME280;44459;43.522;24.470;2023-02-21T20:20:24;100066.13;;;13.19;46.13
57572;BME280;44459;43.522;24.470;2023-02-21T20:22:49;100067.00;;;13.16;46.26
57572;BME280;44459;43.522;24.470;2023-02-21T20:25:15;100055.53;;;13.06;46.49
57572;BME280;44459;43.522;24.470;2023-02-21T20:27:40;100059.97;;;13.06;46.61
57572;BME280;44459;43.522;24.470;2023-02-21T20:30:07;100063.50;;;13.02;46.79
57572;BME280;44459;43.522;24.470;2023-02-21T20:32:33;100061.81;;;12.96;47.16
57572;BME280;44459;43.522;24.470;2023-02-21T20:34:58;100065.34;;;12.94;46.89
57572;BME280;44459;43.522;24.470;2023-02-21T20:37:23;100061.88;;;12.86;47.68
57572;BME280;44459;43.522;24.470;2023-02-21T20:39:50;100064.53;;;12.87;47.68
57572;BME280;44459;43.522;24.470;2023-02-21T20:42:16;100069.81;;;12.84;47.60
57572;BME280;44459;43.522;24.470;2023-02-21T20:44:41;100068.06;;;12.82;47.83
57572;BME280;44459;43.522;24.470;2023-02-21T20:47:12;100080.41;;;12.81;47.78
57572;BME280;44459;43.522;24.470;2023-02-21T20:49:41;100073.38;;;12.80;48.01
57572;BME280;44459;43.522;24.470;2023-02-21T20:52:07;100086.63;;;12.74;47.80
57572;BME280;44459;43.522;24.470;2023-02-21T20:54:32;100088.41;;;12.71;48.45